»·PEaware :: UPS5300 KPDX-KONT

UPS5300 :: KPDX-KONT

FLIGHT INFORMATION

Flight Status: Arrived
Operator:
United Parcel Service
More flights by this operator :: More flights under this callsign
Pilot: David J. (24489)
Aircraft: BOEING 747-400 (WINGLETS)
(B744)
More flights by this aircraft type
Origin: KPDX Portland Intl
United States
Destination: KONT Ontario Intl
United States
More flights between these airports :: More routes between these airports
Route: +HRMNS5 HRMNS J189 LMT CZQ EHF ZIGGY7
File this flight plan on PilotEdge
Remarks: RMK / SIMBRIEF
Altitude:
(Current/Filed)
35,000ft
Speed:
(Current/Filed)
502kts
Departed: 03-Oct-20 11:48 AM
Arrived: 03-Oct-20 01:42 PM
Distance/Time
Traveled:
730nm/1:54
Distance/Time
To Go:
Arrived

Flight Plot

Page will automatically refresh every two minutes.

Flight plan parsing failed; only flown route is shown


Map Options




Map Legend


Flown Route
Filed Route
Departure Airport
Arrival Airport
Navaid (VOR, NDB)
Fix

Horizontal Profiles

Position Reports

Time Latitude Longitude Heading Altitude Ground
Speed
03-Oct-20 11:17 45.583987 -122.609452 134 43ft 0kts
03-Oct-20 11:18 45.583987 -122.609452 134 43ft 0kts
03-Oct-20 11:18 45.583987 -122.609452 134 43ft 0kts
03-Oct-20 11:20 45.583987 -122.609452 134 43ft 0kts
03-Oct-20 11:21 45.583987 -122.609452 134 43ft 0kts
03-Oct-20 11:21 45.583987 -122.609452 134 43ft 0kts
03-Oct-20 11:22 45.583987 -122.609452 134 43ft 0kts
03-Oct-20 11:23 45.583987 -122.609452 134 43ft 0kts
03-Oct-20 11:24 45.583987 -122.609452 134 43ft 0kts
03-Oct-20 11:25 45.583987 -122.609452 134 43ft 0kts
03-Oct-20 11:26 45.583987 -122.609452 134 43ft 0kts
03-Oct-20 11:27 45.583987 -122.609452 134 43ft 0kts
03-Oct-20 11:28 45.583987 -122.609452 134 43ft 0kts
03-Oct-20 11:29 45.583987 -122.609452 134 43ft 0kts
03-Oct-20 11:30 45.583987 -122.609452 134 43ft 0kts
03-Oct-20 11:31 45.583987 -122.609452 134 43ft 0kts
03-Oct-20 11:32 45.583987 -122.609452 134 43ft 0kts
03-Oct-20 11:33 45.583987 -122.609452 134 43ft 0kts
03-Oct-20 11:34 45.583987 -122.609452 134 43ft 0kts
03-Oct-20 11:35 45.584301 -122.609840 115 43ft 2kts
03-Oct-20 11:36 45.584127 -122.610525 44 43ft 0kts
03-Oct-20 11:37 45.584127 -122.610525 44 43ft 0kts
03-Oct-20 11:38 45.584127 -122.610525 44 43ft 0kts
03-Oct-20 11:39 45.584127 -122.610524 44 43ft 0kts
03-Oct-20 11:40 45.584794 -122.609657 41 43ft 9kts
03-Oct-20 11:41 45.586320 -122.608994 14 43ft 6kts
03-Oct-20 11:42 45.588747 -122.608249 300 43ft 15kts
03-Oct-20 11:43 45.589813 -122.613489 283 43ft 15kts
03-Oct-20 11:44 45.592597 -122.620859 296 43ft 20kts
03-Oct-20 11:45 45.594017 -122.622164 27 43ft 0kts
03-Oct-20 11:46 45.594019 -122.622163 27 43ft 0kts
03-Oct-20 11:47 45.594254 -122.619075 117 43ft 44kts
03-Oct-20 11:48 45.573972 -122.559655 102 2192ft 212kts
03-Oct-20 11:49 45.566694 -122.462172 110 4142ft 272kts
03-Oct-20 11:50 45.548463 -122.360240 109 7475ft 281kts
03-Oct-20 11:51 45.483076 -122.306316 175 10347ft 291kts
03-Oct-20 11:52 45.391045 -122.318147 188 11345ft 382kts
03-Oct-20 11:53 45.279257 -122.337635 187 13923ft 417kts
03-Oct-20 11:54 45.161377 -122.356684 187 16767ft 434kts
03-Oct-20 11:55 45.038851 -122.376127 187 19278ft 452kts
03-Oct-20 11:56 44.911532 -122.381857 173 21493ft 470kts
03-Oct-20 11:57 44.780542 -122.349235 171 23134ft 483kts
03-Oct-20 11:58 44.647602 -122.316038 171 23172ft 484kts
03-Oct-20 11:59 44.514403 -122.283119 171 24062ft 492kts
03-Oct-20 12:00 44.378486 -122.249859 171 26074ft 501kts
03-Oct-20 12:01 44.240450 -122.216300 171 28184ft 498kts
03-Oct-20 12:02 44.105874 -122.183743 171 30548ft 487kts
03-Oct-20 12:03 43.972528 -122.151632 171 32238ft 484kts
03-Oct-20 12:04 43.840214 -122.119915 171 33747ft 481kts
03-Oct-20 12:05 43.708689 -122.088529 171 35002ft 479kts
03-Oct-20 12:06 43.577315 -122.057317 171 35229ft 479kts
03-Oct-20 12:07 43.445968 -122.026250 171 35225ft 478kts
03-Oct-20 12:08 43.314789 -121.995359 171 35230ft 479kts
03-Oct-20 12:09 43.183552 -121.964589 171 35225ft 476kts
03-Oct-20 12:10 43.052846 -121.934076 171 35221ft 476kts
03-Oct-20 12:11 42.922170 -121.903702 171 35199ft 476kts
03-Oct-20 12:12 42.791703 -121.873505 171 35199ft 476kts
03-Oct-20 12:13 42.661148 -121.843418 171 35204ft 476kts
03-Oct-20 12:14 42.530513 -121.813438 170 35233ft 476kts
03-Oct-20 12:15 42.400019 -121.783517 170 35234ft 476kts
03-Oct-20 12:16 42.269025 -121.753763 170 35234ft 476kts
03-Oct-20 12:17 42.138719 -121.722423 166 35240ft 476kts
03-Oct-20 12:18 42.011168 -121.672593 164 35238ft 477kts
03-Oct-20 12:19 41.883878 -121.622552 164 35233ft 477kts
03-Oct-20 12:20 41.756600 -121.572809 164 35233ft 476kts
03-Oct-20 12:21 41.629313 -121.523337 164 35229ft 476kts
03-Oct-20 12:22 41.501981 -121.474174 164 35227ft 476kts
03-Oct-20 12:23 41.374530 -121.425186 164 35221ft 476kts
03-Oct-20 12:24 41.247337 -121.376500 164 35182ft 476kts
03-Oct-20 12:25 41.120013 -121.327962 164 35175ft 476kts
03-Oct-20 12:26 40.992649 -121.279605 164 35171ft 476kts
03-Oct-20 12:27 40.865356 -121.231468 164 35170ft 476kts
03-Oct-20 12:28 40.737553 -121.183332 164 35174ft 476kts
03-Oct-20 12:29 40.610324 -121.135603 164 35198ft 476kts
03-Oct-20 12:30 40.483068 -121.088053 164 35177ft 476kts
03-Oct-20 12:31 40.355285 -121.040494 164 35182ft 476kts
03-Oct-20 12:32 40.228067 -120.993331 164 35191ft 476kts
03-Oct-20 12:33 40.100555 -120.946245 164 35207ft 475kts
03-Oct-20 12:34 39.973324 -120.899448 163 35209ft 476kts
03-Oct-20 12:35 39.845854 -120.852736 163 35210ft 476kts
03-Oct-20 12:36 39.718001 -120.806068 163 35203ft 476kts
03-Oct-20 12:37 39.590622 -120.759752 163 35220ft 476kts
03-Oct-20 12:38 39.462858 -120.713474 164 35246ft 476kts
03-Oct-20 12:39 39.335233 -120.667422 164 35298ft 477kts
03-Oct-20 12:40 39.207644 -120.621557 164 35294ft 477kts
03-Oct-20 12:41 39.079783 -120.575767 164 35284ft 478kts
03-Oct-20 12:42 38.951335 -120.529941 164 35252ft 478kts
03-Oct-20 12:43 38.823226 -120.484407 164 35205ft 478kts
03-Oct-20 12:44 38.694730 -120.438905 164 35184ft 479kts
03-Oct-20 12:45 38.566481 -120.393661 164 35160ft 479kts
03-Oct-20 12:46 38.437751 -120.348414 164 35137ft 480kts
03-Oct-20 12:47 38.308704 -120.303225 164 35108ft 480kts
03-Oct-20 12:48 38.179873 -120.258276 164 35088ft 481kts
03-Oct-20 12:49 38.051098 -120.213511 164 35065ft 480kts
03-Oct-20 12:50 37.921686 -120.168689 164 35056ft 481kts
03-Oct-20 12:51 37.792753 -120.124195 164 35043ft 481kts
03-Oct-20 12:52 37.663710 -120.079824 164 35034ft 481kts
03-Oct-20 12:53 37.534719 -120.035629 164 35037ft 480kts
03-Oct-20 12:54 37.405326 -119.991456 164 35044ft 481kts
03-Oct-20 12:55 37.275931 -119.947438 164 35016ft 480kts
03-Oct-20 12:56 37.147041 -119.903632 164 35002ft 481kts
03-Oct-20 12:57 37.017772 -119.860012 164 34998ft 481kts
03-Oct-20 12:58 36.888570 -119.816108 162 34994ft 482kts
03-Oct-20 12:59 36.764126 -119.753255 156 34990ft 482kts
03-Oct-20 13:00 36.640478 -119.688499 157 34994ft 482kts
03-Oct-20 13:01 36.516503 -119.624046 157 34997ft 482kts
03-Oct-20 13:02 36.392982 -119.560073 157 34991ft 482kts
03-Oct-20 13:03 36.268998 -119.496220 157 34990ft 482kts
03-Oct-20 13:04 36.145215 -119.432703 157 34990ft 482kts
03-Oct-20 13:05 36.021402 -119.369389 157 34999ft 482kts
03-Oct-20 13:06 35.897489 -119.306239 157 34983ft 483kts
03-Oct-20 13:08 35.787667 -119.250446 157 34972ft 482kts
03-Oct-20 13:09 35.677314 -119.194394 157 34970ft 482kts
03-Oct-20 13:10 35.553048 -119.131764 157 34942ft 475kts
03-Oct-20 13:11 35.441453 -119.058067 143 33386ft 448kts
03-Oct-20 13:12 35.345011 -118.964829 142 31356ft 435kts
03-Oct-20 13:13 35.251150 -118.875036 143 29417ft 420kts
03-Oct-20 13:14 35.160026 -118.788947 143 27550ft 406kts
03-Oct-20 13:15 35.072980 -118.704518 136 25746ft 393kts
03-Oct-20 13:16 35.004003 -118.603748 130 24265ft 384kts
03-Oct-20 13:17 34.933829 -118.501899 131 24153ft 395kts
03-Oct-20 13:18 34.863286 -118.399594 131 24124ft 393kts
03-Oct-20 13:19 34.793208 -118.297101 131 24074ft 393kts
03-Oct-20 13:20 34.722735 -118.195286 131 24040ft 392kts
03-Oct-20 13:21 34.652698 -118.094491 131 24049ft 379kts
03-Oct-20 13:22 34.598331 -117.993533 120 24055ft 351kts
03-Oct-20 13:23 34.551393 -117.888060 120 24032ft 355kts
03-Oct-20 13:24 34.503546 -117.783747 121 24022ft 355kts
03-Oct-20 13:24 34.463567 -117.696998 121 24017ft 355kts
03-Oct-20 13:26 34.407405 -117.575217 121 24008ft 355kts
03-Oct-20 13:27 34.360043 -117.472772 121 23144ft 339kts
03-Oct-20 13:27 34.322014 -117.390729 120 21064ft 339kts
03-Oct-20 13:28 34.248216 -117.325518 163 18112ft 342kts
03-Oct-20 13:30 34.157974 -117.256184 114 14629ft 346kts
03-Oct-20 13:30 34.139686 -117.168258 101 13747ft 307kts
03-Oct-20 13:31 34.119488 -117.074816 127 13106ft 269kts
03-Oct-20 13:32 34.061555 -117.071002 232 11912ft 220kts
03-Oct-20 13:33 34.056772 -117.142714 271 9733ft 214kts
03-Oct-20 13:34 34.057525 -117.213948 271 7461ft 209kts
03-Oct-20 13:35 34.057677 -117.282951 267 5246ft 202kts
03-Oct-20 13:36 34.053207 -117.349846 269 4136ft 200kts
03-Oct-20 13:37 34.053649 -117.416665 270 3712ft 198kts
03-Oct-20 13:38 34.054088 -117.480289 271 2552ft 174kts
03-Oct-20 13:39 34.055014 -117.535811 269 1743ft 163kts
03-Oct-20 13:40 34.054923 -117.589299 269 992ft 153kts
03-Oct-20 13:41 34.054940 -117.614316 271 957ft 12kts
03-Oct-20 13:42 34.054090 -117.616001 153 957ft 0kts
03-Oct-20 13:43 34.053904 -117.611884 89 957ft 19kts
03-Oct-20 13:44 34.053872 -117.606010 89 957ft 15kts
03-Oct-20 13:45 34.053883 -117.601362 89 957ft 12kts
03-Oct-20 13:46 34.053850 -117.594127 90 957ft 21kts
03-Oct-20 13:47 34.053855 -117.587454 90 957ft 18kts
03-Oct-20 13:48 34.053456 -117.582711 164 957ft 10kts
03-Oct-20 13:49 34.052408 -117.580143 90 957ft 9kts
03-Oct-20 13:50 34.051530 -117.578301 179 957ft 6kts
03-Oct-20 13:51 34.049597 -117.577826 88 957ft 3kts
03-Oct-20 13:52 34.049612 -117.577444 89 957ft 0kts
03-Oct-20 13:53 34.049612 -117.577444 89 957ft 0kts
03-Oct-20 13:54 34.049612 -117.577444 89 957ft 0kts
03-Oct-20 13:55 34.049612 -117.577444 89 957ft 0kts

Navigation Log

Ident Type
Flight plan parsing failed, navigation log unavailable